Senath, Missouri
Current Conditions -  °F | °C
As of 1:53 AM on Sunday 23 Nov 2014 (Local Time) from KHKA Reporting Station
Few Clouds Few Clouds  
Wind Chill: 63°   Ceiling: Unl
Heat Index: 63°   Visibility: 10mi
Dew Point: 50°   Wind: 9mph
Humidity: 63%   Direction: 150°SSE
Pressure: 29.87"   Gusts: NA
Location:  36.13°N, 90.16°W
Report Text: KHKA 230753Z AUTO 15008KT 10SM FEW100 17/10 A2987 RMK AO2 SLP112 T01720100 $
Loading
Personal Weather Stations






























Interactive Weather Map New forecast layout! Learn more

10-Day Weather Forecast

Advertisements
Track Severe Weather on mobile